Time,TemperatureF,DewpointF,PressureIn,WindDirection,WindDirectionDegrees,WindSpeedMPH,WindSpeedGustMPH,Humidity,HourlyPrecipIn,Conditions,Clouds,dailyrainin,SoftwareType,DateUTC
2013-07-10 00:02:00,74.0,69.0,28.40,NE,55,2.0,3.0,84,0.08,,,0.20,,2013-07-10 05:02:00,
2013-07-10 00:12:00,74.0,69.0,28.40,NE,55,2.0,3.0,84,0.08,,,0.20,,2013-07-10 05:12:00,
2013-07-10 00:22:00,74.0,69.0,28.40,NE,55,2.0,3.0,84,0.08,,,0.20,,2013-07-10 05:22:00,
2013-07-10 00:32:00,74.0,69.0,28.40,NE,55,2.0,3.0,84,0.08,,,0.20,,2013-07-10 05:32:00,
2013-07-10 00:42:00,74.0,69.0,28.40,SE,146,0.0,0.0,84,0.04,,,0.20,,2013-07-10 05:42:00,
2013-07-10 00:53:00,74.0,69.0,28.40,NNE,32,0.0,0.0,84,0.04,,,0.20,,2013-07-10 05:53:00,
2013-07-10 01:01:00,74.0,69.0,28.40,NNE,32,0.0,0.0,84,0.04,,,0.20,,2013-07-10 06:01:00,
2013-07-10 01:11:00,74.0,69.0,28.40,NNE,32,0.0,0.0,84,0.04,,,0.20,,2013-07-10 06:11:00,
2013-07-10 01:21:00,74.0,69.0,28.40,South,171,0.0,3.0,84,0.00,,,0.20,,2013-07-10 06:21:00,
2013-07-10 01:32:00,74.0,69.0,28.40,SSW,202,0.0,4.0,84,0.00,,,0.20,,2013-07-10 06:32:00,
2013-07-10 01:42:00,74.0,69.0,28.40,SSW,202,0.0,4.0,84,0.00,,,0.20,,2013-07-10 06:42:00,
2013-07-10 01:52:00,72.0,67.0,28.40,SSW,202,0.0,4.0,83,0.00,,,0.20,,2013-07-10 06:52:00,
2013-07-10 02:01:00,72.0,67.0,28.40,SSW,202,0.0,4.0,83,0.00,,,0.20,,2013-07-10 07:01:00,
2013-07-10 02:11:00,72.0,67.0,28.40,SSW,202,0.0,4.0,84,0.00,,,0.20,,2013-07-10 07:11:00,
2013-07-10 02:22:00,72.0,67.0,28.40,SSW,202,0.0,4.0,84,0.00,,,0.20,,2013-07-10 07:22:00,
2013-07-10 02:33:00,72.0,67.0,28.40,SSW,202,0.0,0.0,84,0.00,,,0.20,,2013-07-10 07:33:00,
2013-07-10 02:43:00,72.0,67.0,28.40,SSW,202,0.0,0.0,84,0.00,,,0.20,,2013-07-10 07:43:00,
2013-07-10 02:53:00,72.0,67.0,28.40,SSW,202,0.0,0.0,84,0.00,,,0.20,,2013-07-10 07:53:00,
2013-07-10 03:01:00,72.0,67.0,28.40,SSW,202,0.0,0.0,84,0.00,,,0.20,,2013-07-10 08:01:00,
2013-07-10 03:11:00,72.0,67.0,28.40,SSW,202,0.0,0.0,84,0.00,,,0.20,,2013-07-10 08:11:00,
2013-07-10 03:22:00,72.0,67.0,28.40,SSW,202,0.0,0.0,84,0.00,,,0.20,,2013-07-10 08:22:00,
2013-07-10 03:42:00,72.0,67.0,28.40,SSW,208,3.0,3.0,84,0.00,,,0.20,,2013-07-10 08:42:00,
2013-07-10 03:53:00,72.0,67.0,28.40,WSW,244,0.0,3.0,84,0.00,,,0.20,,2013-07-10 08:53:00,
2013-07-10 04:02:00,72.0,67.0,28.40,WSW,244,0.0,3.0,84,0.00,,,0.20,,2013-07-10 09:02:00,
2013-07-10 04:12:00,72.0,67.0,28.43,WNW,285,0.0,3.0,84,0.00,,,0.20,,2013-07-10 09:12:00,
2013-07-10 04:22:00,72.0,67.0,28.43,WNW,285,0.0,0.0,84,0.00,,,0.20,,2013-07-10 09:22:00,
2013-07-10 04:32:00,72.0,67.0,28.43,WNW,285,0.0,0.0,84,0.00,,,0.20,,2013-07-10 09:32:00,
2013-07-10 04:42:00,72.0,67.0,28.43,WNW,285,0.0,0.0,84,0.00,,,0.20,,2013-07-10 09:42:00,
2013-07-10 04:52:00,72.0,67.0,28.43,WNW,285,0.0,2.0,84,0.00,,,0.20,,2013-07-10 09:52:00,
2013-07-10 05:01:00,72.0,67.0,28.43,WNW,285,0.0,2.0,84,0.00,,,0.20,,2013-07-10 10:01:00,
2013-07-10 05:13:00,70.0,68.0,28.43,WNW,285,0.0,2.0,92,0.00,,,0.20,,2013-07-10 10:13:00,
2013-07-10 05:23:00,70.0,68.0,28.43,WNW,285,0.0,0.0,93,0.00,,,0.20,,2013-07-10 10:23:00,
2013-07-10 05:32:00,70.0,68.0,28.43,WNW,285,0.0,0.0,93,0.00,,,0.20,,2013-07-10 10:32:00,
2013-07-10 05:50:00,-999.0,-99.9,28.43,WNW,285,0.0,0.0,-999,-99.99,,,-99.99,,2013-07-10 10:50:00,
2013-07-10 06:00:00,-999.0,-99.9,28.43,WNW,285,0.0,0.0,-999,-99.99,,,-99.99,,2013-07-10 11:00:00,
2013-07-10 06:11:00,70.0,68.0,28.43,WNW,285,0.0,3.0,93,0.00,,,0.20,,2013-07-10 11:11:00,
2013-07-10 06:22:00,70.0,68.0,28.43,WNW,285,0.0,0.0,93,0.00,,,0.20,,2013-07-10 11:22:00,
2013-07-10 06:33:00,70.0,68.0,28.43,WNW,285,0.0,0.0,93,0.00,,,0.20,,2013-07-10 11:33:00,
2013-07-10 06:43:00,70.0,68.0,28.43,WNW,285,0.0,0.0,93,0.00,,,0.20,,2013-07-10 11:43:00,
2013-07-10 06:52:00,70.0,68.0,28.43,WNW,285,0.0,0.0,93,0.00,,,0.20,,2013-07-10 11:52:00,
2013-07-10 07:01:00,70.0,68.0,28.43,WNW,285,0.0,0.0,93,0.00,,,0.20,,2013-07-10 12:01:00,
2013-07-10 07:11:00,70.0,68.0,28.43,WNW,285,0.0,0.0,93,0.00,,,0.20,,2013-07-10 12:11:00,
2013-07-10 07:22:00,70.0,68.0,28.43,WNW,285,0.0,0.0,93,0.00,,,0.20,,2013-07-10 12:22:00,
2013-07-10 07:33:00,70.0,68.0,28.43,WNW,285,0.0,0.0,93,0.00,,,0.20,,2013-07-10 12:33:00,
2013-07-10 07:43:00,70.0,68.0,28.46,WSW,243,0.0,3.0,94,0.00,,,0.20,,2013-07-10 12:43:00,
2013-07-10 07:52:00,70.0,68.0,28.46,WSW,243,0.0,3.0,94,0.00,,,0.20,,2013-07-10 12:52:00,
2013-07-10 08:01:00,70.0,68.0,28.46,WSW,243,0.0,3.0,94,0.00,,,0.20,,2013-07-10 13:01:00,
2013-07-10 08:11:00,70.0,68.0,28.46,WSW,243,0.0,3.0,94,0.00,,,0.20,,2013-07-10 13:11:00,
2013-07-10 08:21:00,70.0,68.0,28.46,WSW,243,0.0,0.0,94,0.00,,,0.20,,2013-07-10 13:21:00,
2013-07-10 08:32:00,70.0,68.0,28.46,WSW,243,0.0,0.0,94,0.00,,,0.20,,2013-07-10 13:32:00,
2013-07-10 08:43:00,70.0,68.0,28.46,WSW,243,0.0,0.0,94,0.00,,,0.20,,2013-07-10 13:43:00,
2013-07-10 08:52:00,70.0,68.0,28.46,WSW,243,0.0,0.0,94,0.00,,,0.20,,2013-07-10 13:52:00,
2013-07-10 09:01:00,70.0,68.0,28.46,WSW,243,0.0,0.0,94,0.00,,,0.20,,2013-07-10 14:01:00,
2013-07-10 09:11:00,70.0,68.0,28.46,North,0,0.0,5.0,94,0.00,,,0.20,,2013-07-10 14:11:00,
2013-07-10 10:22:00,84.0,69.0,28.46,NNE,20,3.0,5.0,60,0.00,,,0.20,,2013-07-10 15:22:00,
2013-07-10 10:34:00,84.0,69.0,28.46,NNE,20,3.0,5.0,60,0.00,,,0.20,,2013-07-10 15:34:00,
2013-07-10 10:42:00,84.0,69.0,28.46,North,0,4.0,10.0,60,0.00,,,0.20,,2013-07-10 15:42:00,
2013-07-10 10:52:00,84.0,69.0,28.46,North,0,4.0,10.0,60,0.00,,,0.20,,2013-07-10 15:52:00,
2013-07-10 11:01:00,84.0,69.0,28.46,North,0,4.0,10.0,60,0.00,,,0.20,,2013-07-10 16:01:00,
2013-07-10 11:11:00,87.0,67.0,28.46,NNW,348,3.0,10.0,51,0.00,,,0.20,,2013-07-10 16:11:00,
2013-07-10 11:22:00,88.0,68.0,28.46,NNE,15,3.0,7.0,51,0.00,,,0.20,,2013-07-10 16:22:00,
2013-07-10 11:33:00,88.0,68.0,28.46,NNE,15,3.0,7.0,51,0.00,,,0.20,,2013-07-10 16:33:00,
2013-07-10 11:44:00,88.0,68.0,28.46,NNE,15,3.0,7.0,51,0.00,,,0.20,,2013-07-10 16:44:00,
2013-07-10 11:53:00,88.0,68.0,28.46,NNE,15,3.0,7.0,51,0.00,,,0.20,,2013-07-10 16:53:00,
2013-07-10 12:02:00,89.0,66.0,28.49,NNE,14,5.0,9.0,47,0.00,,,0.20,,2013-07-10 17:02:00,
2013-07-10 12:11:00,89.0,66.0,28.49,NNE,14,5.0,9.0,47,0.00,,,0.20,,2013-07-10 17:11:00,
2013-07-10 12:23:00,89.0,66.0,28.49,NNE,14,5.0,9.0,47,0.00,,,0.20,,2013-07-10 17:23:00,
2013-07-10 12:32:00,90.0,66.0,28.49,North,4,3.0,10.0,46,0.00,,,0.20,,2013-07-10 17:32:00,
2013-07-10 12:42:00,90.0,66.0,28.49,North,4,3.0,10.0,46,0.00,,,0.20,,2013-07-10 17:42:00,
2013-07-10 12:53:00,90.0,66.0,28.49,North,4,3.0,10.0,46,0.00,,,0.20,,2013-07-10 17:53:00,
2013-07-10 13:02:00,91.0,67.0,28.49,NNW,344,2.0,11.0,45,0.00,,,0.20,,2013-07-10 18:02:00,
2013-07-10 13:11:00,91.0,67.0,28.49,NNW,344,2.0,11.0,45,0.00,,,0.20,,2013-07-10 18:11:00,
2013-07-10 13:21:00,91.0,67.0,28.49,NNW,344,2.0,11.0,45,0.00,,,0.20,,2013-07-10 18:21:00,
2013-07-10 13:32:00,91.0,66.0,28.49,NNE,30,3.0,9.0,44,0.00,,,0.20,,2013-07-10 18:32:00,
2013-07-10 13:44:00,91.0,66.0,28.49,NNE,30,3.0,9.0,44,0.00,,,0.20,,2013-07-10 18:44:00,
2013-07-10 13:53:00,93.0,65.0,28.49,North,0,3.0,11.0,40,0.00,,,0.20,,2013-07-10 18:53:00,
2013-07-10 14:01:00,93.0,65.0,28.46,NNE,20,3.0,11.0,40,0.00,,,0.20,,2013-07-10 19:01:00,
2013-07-10 14:11:00,93.0,65.0,28.46,North,11,3.0,11.0,40,0.00,,,0.20,,2013-07-10 19:11:00,
2013-07-10 14:21:00,93.0,65.0,28.46,North,11,3.0,11.0,40,0.00,,,0.20,,2013-07-10 19:21:00,
2013-07-10 14:32:00,93.0,65.0,28.46,North,11,3.0,11.0,40,0.00,,,0.20,,2013-07-10 19:32:00,
2013-07-10 14:42:00,93.0,67.0,28.46,NNE,29,5.0,9.0,43,0.00,,,0.20,,2013-07-10 19:42:00,
2013-07-10 14:52:00,93.0,67.0,28.46,NNE,21,6.0,11.0,43,0.00,,,0.20,,2013-07-10 19:52:00,
2013-07-10 15:01:00,93.0,67.0,28.46,NNE,21,3.0,11.0,43,0.00,,,0.20,,2013-07-10 20:01:00,
2013-07-10 15:11:00,94.0,65.0,28.46,NNE,12,4.0,11.0,39,0.00,,,0.20,,2013-07-10 20:11:00,
2013-07-10 15:22:00,94.0,65.0,28.46,NNE,12,4.0,11.0,39,0.00,,,0.20,,2013-07-10 20:22:00,
2013-07-10 15:32:00,94.0,65.0,28.46,NNE,12,4.0,11.0,39,0.00,,,0.20,,2013-07-10 20:32:00,
2013-07-10 15:43:00,94.0,65.0,28.46,NNE,12,4.0,11.0,39,0.00,,,0.20,,2013-07-10 20:43:00,
2013-07-10 15:52:00,93.0,64.0,28.46,North,0,2.0,10.0,39,0.00,,,0.20,,2013-07-10 20:52:00,
2013-07-10 16:01:00,93.0,65.0,28.46,NE,40,3.0,10.0,40,0.00,,,0.20,,2013-07-10 21:01:00,
2013-07-10 16:11:00,93.0,65.0,28.46,NE,40,3.0,10.0,40,0.00,,,0.20,,2013-07-10 21:11:00,
2013-07-10 16:22:00,92.0,64.0,28.46,NNE,18,3.0,5.0,40,0.00,,,0.20,,2013-07-10 21:22:00,
2013-07-10 16:32:00,92.0,64.0,28.46,NNE,18,3.0,5.0,40,0.00,,,0.20,,2013-07-10 21:32:00,
2013-07-10 16:41:00,92.0,64.0,28.43,North,5,3.0,11.0,40,0.00,,,0.20,,2013-07-10 21:41:00,
2013-07-10 17:01:00,92.0,63.0,28.43,North,0,5.0,11.0,39,0.00,,,0.20,,2013-07-10 22:01:00,
2013-07-10 17:11:00,91.0,63.0,28.43,NNE,12,3.0,11.0,40,0.00,,,0.20,,2013-07-10 22:11:00,
2013-07-10 17:21:00,91.0,63.0,28.43,NNW,334,10.0,10.0,40,0.00,,,0.20,,2013-07-10 22:21:00,
2013-07-10 17:33:00,91.0,63.0,28.43,NNW,334,10.0,10.0,40,0.00,,,0.20,,2013-07-10 22:33:00,
2013-07-10 17:42:00,91.0,63.0,28.40,North,357,3.0,10.0,39,0.00,,,0.20,,2013-07-10 22:42:00,
2013-07-10 17:53:00,91.0,63.0,28.40,North,0,5.0,10.0,39,0.00,,,0.20,,2013-07-10 22:53:00,
2013-07-10 18:01:00,91.0,63.0,28.40,North,0,5.0,10.0,39,0.00,,,0.20,,2013-07-10 23:01:00,
2013-07-10 18:11:00,91.0,61.0,28.40,NE,56,3.0,11.0,37,0.00,,,0.20,,2013-07-10 23:11:00,
2013-07-10 18:22:00,91.0,61.0,28.40,NE,56,3.0,11.0,37,0.00,,,0.20,,2013-07-10 23:22:00,
2013-07-10 21:11:00,85.0,57.0,28.40,North,357,3.0,7.0,38,0.00,,,0.20,,2013-07-11 02:11:00,
2013-07-10 21:22:00,85.0,57.0,28.40,North,357,3.0,7.0,38,0.00,,,0.20,,2013-07-11 02:22:00,
2013-07-10 21:53:00,84.0,57.0,28.40,NNE,24,2.0,7.0,40,0.00,,,0.20,,2013-07-11 02:53:00,
2013-07-10 22:01:00,84.0,57.0,28.40,NNE,24,2.0,7.0,40,0.00,,,0.20,,2013-07-11 03:01:00,
2013-07-10 22:11:00,83.0,56.0,28.40,North,353,5.0,8.0,40,0.00,,,0.20,,2013-07-11 03:11:00,
2013-07-10 22:21:00,83.0,56.0,28.40,North,353,5.0,8.0,40,0.00,,,0.20,,2013-07-11 03:21:00,
2013-07-10 22:33:00,83.0,56.0,28.40,North,353,5.0,8.0,40,0.00,,,0.20,,2013-07-11 03:33:00,
2013-07-10 22:42:00,83.0,56.0,28.40,North,353,5.0,8.0,40,0.00,,,0.20,,2013-07-11 03:42:00,
2013-07-10 22:52:00,81.0,57.0,28.43,North,11,3.0,8.0,44,0.00,,,0.08,,2013-07-11 03:52:00,
2013-07-10 23:01:00,81.0,57.0,28.43,North,11,3.0,8.0,44,0.00,,,0.08,,2013-07-11 04:01:00,
2013-07-10 23:12:00,80.0,58.0,28.43,NNW,343,3.0,8.0,47,0.00,,,0.08,,2013-07-11 04:12:00,
2013-07-10 23:22:00,80.0,58.0,28.43,NNW,343,3.0,8.0,47,0.00,,,0.08,,2013-07-11 04:22:00,
2013-07-10 23:32:00,79.0,58.0,28.43,NNE,15,2.0,5.0,48,0.00,,,0.04,,2013-07-11 04:32:00,
2013-07-10 23:42:00,79.0,58.0,28.43,NNE,15,2.0,5.0,48,0.00,,,0.04,,2013-07-11 04:42:00,
2013-07-10 23:53:00,79.0,58.0,28.43,NNE,15,2.0,5.0,48,0.00,,,0.04,,2013-07-11 04:53:00,